04:07
Airports
History
Links
Donate
Help keep this website running!
PayPal
Bitcoin
Information on this page is community maintained and may be outdated or inaccurate and is intended for reference only or PC simulator navigating!
Always use approved charts for navigating.
CFH4
FOX HARBOUR
FOX HARBOUR (CFH4)
Pugwash, Nova Scotia, Canada
(U)
Lat/Lng:45° 52' 12" N / 63° 27' 40" W
45.87 / -63.461112
Elevation:62'ft 19mMSL
ID / ICAO:CFH4
Runways:1
Longest:(15-33) 1,480.6m 4,858ft Asphalt
Distance To
Airport ID:
Airport Radio Frequencies
UNICOM/CTAF: 122.2
Nearby VORs <50NM
Nearby NDBs
Nearby WeatherUpdated 02-20-17 03:00 GMT
Nearby weather at CYYG, CHARLOTTETOWN located 33.3 nautical miles from CFH4
Altimeter: 29.73
Visibility: 8.0 statute miles
Wind: 5 knots (350°)
Temp: -2°c 28°f
Humidity: 92.8%

METAR: CYYG 200300Z 35005KT 8SM -SN OVC004 M02/M03 A2973 RMK SC8 SLP072

(Powered by phpweather)
Runway 15 / 33
Dimensions:1480.6 x 22.9m 4858' x 75'ft
Surface:Asphalt
Runway 15 [A]Runway 33 [B]
Heading:126°TH 306°TH
Lat:
Lng:
45° 52' 26.16"N
63° 28' 7.94"W
45° 51' 57.84"N
63° 27' 12.06"W
Google Map
Nearby Airports
(U) DEBERT 31.1 NM
CCQ3 S 180°
(C) CHARLOTTETOWN 33.3 NM
CYYG (WX) NNE 29°
(U) Summerside 43.3 NM
CYSU NNW 335°
(U) TRENTON 44.3 NM
CYTN ESE 113°
4 STANLEY 57.6 NM
CCW4 SSW 202°
(C) GREATER MONCTON INTL 60.8 NM
CYQM (WX) WNW 285°
(U) Moncton McEwen 65.7 NM
CCG4 WNW 287°
VFR Chart
Flight Planning at SkyVector.com